الصفحة الرئيسية
METAR-TAF:

METAR-TAF

مطار :

مطار العريش الدولي

العريش, مصر

دائرة عرض: 31-05N, خط طول: 033-49E, ارتفاع: 31 متر

METAR: مفقودة

زمن: 11:13 (09:13 UTC)

توقعات

تاريخ ووقت الإصدار 23 دقيقة قبل الساعة 08:50UTC
التوقعات صالحة من19 الساعة 09 UTC إلى 20 الساعة 12 UTC
ريح 8 عقدة من الشمال/الشمال الغربي
الرؤية 10 كم أو أكثر
غيوم متفرقة على ارتفاع 2000 قدم
أصبح
من 19 الساعة 16 UTC إلى 19 الساعة 18 UTC
ريح 3 عقدةمن اتجاهات متغيرة
أصبح
من 20 الساعة 07 UTC إلى 20 الساعة 09 UTC
ريح 6 عقدة من الجنوب

TAF: HEAR 190850Z 1909/2012 34008KT 9999 SCT020 BECMG 1916/1918 VRB03KT BECMG 2007/2009 19006KT

أرصاد الطقس والتوقعات من أكثر من 4000 مطار (تقارير الطقس للمطار METAR والتنبؤ بالطقس بالمطارTAF).

المحطات المتاحة هي النقط الصفراء والحمراء على الخريطة.

حرك المؤشر فوق النقطة لمعرفة اسم المحطة.

ثم انقر لمعرفة أرصاد وتوقعات الطقس.

لتغيير الخارطة: اضغط على الأزرار الخضراء مع رمز الصليب الأسود للتكبير. على الزر الأخضر مع شرطة للتصغير، أو على الأسهم الخضراء للخرائط المجاورة.


METAR-TAF: